createdAt,value
2018-12-17T00:00:04.872Z,28.67
2018-12-17T00:02:33.513Z,33.60
2018-12-17T00:05:02.495Z,32.73
2018-12-17T00:07:31.294Z,38.67
2018-12-17T00:09:59.738Z,45.88
2018-12-17T00:12:28.266Z,36.85
2018-12-17T00:14:56.878Z,31.62
2018-12-17T00:17:25.650Z,31.37
2018-12-17T00:19:54.124Z,29.85
2018-12-17T00:22:24.248Z,32.42
2018-12-17T00:24:52.635Z,35.15
2018-12-17T00:27:21.211Z,29.50
2018-12-17T00:29:49.722Z,36.53
2018-12-17T00:32:18.183Z,31.20
2018-12-17T00:34:46.701Z,36.00
2018-12-17T00:37:15.608Z,30.62
2018-12-17T00:39:44.269Z,31.70
2018-12-17T00:42:12.676Z,39.60
2018-12-17T00:44:41.110Z,39.10
2018-12-17T00:47:09.799Z,40.40
2018-12-17T00:49:38.226Z,40.67
2018-12-17T00:52:07.301Z,31.73
2018-12-17T00:54:35.655Z,33.30
2018-12-17T00:57:04.486Z,32.88
2018-12-17T00:59:32.901Z,35.65
2018-12-17T01:02:01.527Z,33.53
2018-12-17T01:04:30.000Z,31.73
2018-12-17T01:06:58.508Z,37.25
2018-12-17T01:09:27.312Z,31.52
2018-12-17T01:11:56.050Z,39.50
2018-12-17T01:14:24.835Z,35.48
2018-12-17T01:16:53.446Z,38.00
2018-12-17T01:19:22.544Z,36.03
2018-12-17T01:21:51.215Z,44.23
2018-12-17T01:24:21.517Z,44.73
2018-12-17T01:26:50.808Z,43.10
2018-12-17T01:29:19.620Z,51.48
2018-12-17T01:31:48.508Z,44.10
2018-12-17T01:34:17.016Z,37.45
2018-12-17T01:36:45.472Z,39.33
2018-12-17T01:39:14.486Z,38.35
2018-12-17T01:41:43.237Z,37.03
2018-12-17T01:44:11.778Z,44.25
2018-12-17T01:46:40.620Z,38.17
2018-12-17T01:49:09.866Z,41.30
2018-12-17T01:51:38.856Z,38.80
2018-12-17T01:54:08.085Z,37.05
2018-12-17T01:56:36.566Z,36.03
2018-12-17T01:59:05.452Z,38.53
2018-12-17T02:01:34.669Z,42.38
2018-12-17T02:04:03.712Z,65.20
2018-12-17T02:06:32.175Z,42.45
2018-12-17T02:09:00.865Z,44.98
2018-12-17T02:11:29.438Z,42.88
2018-12-17T02:13:57.948Z,46.08
2018-12-17T02:16:26.860Z,43.28
2018-12-17T02:18:55.296Z,54.70
2018-12-17T02:21:23.757Z,51.53
2018-12-17T02:23:52.260Z,36.58
2018-12-17T02:26:20.665Z,41.05
2018-12-17T02:28:49.384Z,40.80
2018-12-17T02:31:18.063Z,37.83
2018-12-17T02:33:46.532Z,47.23
2018-12-17T02:36:15.543Z,53.33
2018-12-17T02:38:43.986Z,34.67
2018-12-17T02:41:12.489Z,40.43
2018-12-17T02:43:40.975Z,36.35
2018-12-17T02:46:10.925Z,34.48
2018-12-17T02:48:39.569Z,34.48
2018-12-17T02:51:09.051Z,35.88
2018-12-17T02:53:37.415Z,36.38
2018-12-17T02:56:06.232Z,38.98
2018-12-17T02:58:34.901Z,33.18
2018-12-17T03:01:04.077Z,37.65
2018-12-17T03:03:32.835Z,33.58
2018-12-17T03:06:01.305Z,33.90
2018-12-17T03:08:30.015Z,35.00
2018-12-17T03:10:58.945Z,29.00
2018-12-17T03:13:27.457Z,34.00
2018-12-17T03:15:56.032Z,33.13
2018-12-17T03:18:25.300Z,28.80
2018-12-17T03:20:53.852Z,30.88
2018-12-17T03:23:22.568Z,30.37
2018-12-17T03:25:50.980Z,31.77
2018-12-17T03:28:19.925Z,31.97
2018-12-17T03:30:48.645Z,31.30
2018-12-17T03:33:17.303Z,34.40
2018-12-17T03:35:45.805Z,31.50
2018-12-17T03:38:14.524Z,36.10
2018-12-17T03:40:43.874Z,33.05
2018-12-17T03:43:12.669Z,34.78
2018-12-17T03:45:41.250Z,35.23
2018-12-17T03:48:10.264Z,34.65
2018-12-17T03:50:38.906Z,32.55
2018-12-17T03:53:07.385Z,34.08
2018-12-17T03:55:36.163Z,33.30
2018-12-17T03:58:04.765Z,37.65
2018-12-17T04:00:34.216Z,36.73
2018-12-17T04:03:03.487Z,33.90
2018-12-17T04:05:32.385Z,37.53
2018-12-17T04:08:01.476Z,30.90
2018-12-17T04:10:30.443Z,32.95
2018-12-17T04:12:59.229Z,33.33
2018-12-17T04:15:27.870Z,38.70
2018-12-17T04:17:56.505Z,33.08
2018-12-17T04:20:25.193Z,35.17
2018-12-17T04:22:53.901Z,29.18
2018-12-17T04:25:22.964Z,34.18
2018-12-17T04:27:51.766Z,29.55
2018-12-17T04:30:20.634Z,33.55
2018-12-17T04:32:49.044Z,30.32
2018-12-17T04:35:17.731Z,26.45
2018-12-17T04:37:46.623Z,26.50
2018-12-17T04:40:15.168Z,26.17
2018-12-17T04:42:44.955Z,27.17
2018-12-17T04:45:14.724Z,30.30
2018-12-17T04:47:43.189Z,20.43
2018-12-17T04:50:11.856Z,26.05
2018-12-17T04:52:40.430Z,23.70
2018-12-17T04:55:09.678Z,23.57
2018-12-17T04:57:38.943Z,26.30
2018-12-17T05:00:10.348Z,26.93
2018-12-17T05:02:38.906Z,24.10
2018-12-17T05:05:08.052Z,23.83
2018-12-17T05:07:36.681Z,25.12
2018-12-17T05:10:16.189Z,21.75
2018-12-17T05:12:45.084Z,19.35
2018-12-17T05:15:13.659Z,17.48
2018-12-17T05:17:42.122Z,20.45
2018-12-17T05:20:10.560Z,20.48
2018-12-17T05:22:39.442Z,14.18
2018-12-17T05:25:08.519Z,17.00
2018-12-17T05:27:42.048Z,15.53
2018-12-17T05:30:10.954Z,16.52
2018-12-17T05:32:39.516Z,21.20
2018-12-17T05:35:08.407Z,13.88
2018-12-17T05:37:37.284Z,15.58
2018-12-17T05:40:07.327Z,16.90
2018-12-17T05:42:35.861Z,16.95
2018-12-17T05:45:05.461Z,15.90
2018-12-17T05:47:34.563Z,16.50
2018-12-17T05:50:04.200Z,19.40
2018-12-17T05:52:32.634Z,17.20
2018-12-17T05:55:01.951Z,20.27
2018-12-17T05:57:31.106Z,20.85
2018-12-17T05:59:59.564Z,14.43
2018-12-17T06:02:28.408Z,14.80
2018-12-17T06:04:56.959Z,15.32
2018-12-17T06:07:26.191Z,21.68
2018-12-17T06:09:54.986Z,19.82
2018-12-17T06:12:24.053Z,15.85
2018-12-17T06:14:52.867Z,18.45
2018-12-17T06:17:21.850Z,15.35
2018-12-17T06:19:50.811Z,17.65
2018-12-17T06:22:19.600Z,15.28
2018-12-17T06:24:48.107Z,13.65
2018-12-17T06:27:18.395Z,19.92
2018-12-17T06:29:46.818Z,20.00
2018-12-17T06:32:15.306Z,21.50
2018-12-17T06:34:43.863Z,21.52
2018-12-17T06:37:12.529Z,19.40
2018-12-17T06:39:41.086Z,21.93
2018-12-17T06:42:09.788Z,22.50
2018-12-17T06:44:38.550Z,18.85
2018-12-17T06:47:07.411Z,22.30
2018-12-17T06:49:35.902Z,22.87
2018-12-17T06:52:04.476Z,20.45
2018-12-17T06:54:33.760Z,20.20
2018-12-17T06:57:02.216Z,21.42
2018-12-17T06:59:30.631Z,22.13
2018-12-17T07:02:00.791Z,23.98
2018-12-17T07:04:29.744Z,21.70
2018-12-17T07:06:58.219Z,23.45
2018-12-17T07:09:26.612Z,23.62
2018-12-17T07:11:55.384Z,22.93
2018-12-17T07:14:23.788Z,21.33
2018-12-17T07:16:52.326Z,20.40
2018-12-17T07:19:21.088Z,24.55
2018-12-17T07:21:49.500Z,22.37
2018-12-17T07:24:18.266Z,25.50
2018-12-17T07:26:46.868Z,28.15
2018-12-17T07:29:15.393Z,28.87
2018-12-17T07:31:44.186Z,26.15
2018-12-17T07:34:13.012Z,25.23
2018-12-17T07:36:44.158Z,21.52
2018-12-17T07:39:13.150Z,19.90
2018-12-17T07:41:41.605Z,22.10
2018-12-17T07:44:10.032Z,20.30
2018-12-17T07:46:38.499Z,26.77
2018-12-17T07:49:07.671Z,20.95
2018-12-17T07:51:36.135Z,21.60
2018-12-17T07:54:04.986Z,17.12
2018-12-17T07:56:33.493Z,17.73
2018-12-17T07:59:02.299Z,21.90
2018-12-17T08:01:30.940Z,17.42
2018-12-17T08:03:59.624Z,18.10
2018-12-17T08:06:28.147Z,26.17
2018-12-17T08:08:56.598Z,17.80
2018-12-17T08:11:26.131Z,19.12
2018-12-17T08:13:54.605Z,17.12
2018-12-17T08:16:23.012Z,14.38
2018-12-17T08:18:52.687Z,14.25
2018-12-17T08:21:21.152Z,20.40
2018-12-17T08:23:50.217Z,15.60
2018-12-17T08:26:19.640Z,17.90
2018-12-17T08:28:48.358Z,20.88
2018-12-17T08:31:17.230Z,17.77
2018-12-17T08:33:45.688Z,17.95
2018-12-17T08:36:14.727Z,17.27
2018-12-17T08:38:43.143Z,17.27
2018-12-17T08:41:12.095Z,13.88
2018-12-17T08:43:40.555Z,13.70
2018-12-17T08:46:09.160Z,16.73
2018-12-17T08:48:37.639Z,18.48
2018-12-17T08:51:06.569Z,20.08
2018-12-17T08:53:35.026Z,17.30
2018-12-17T08:56:03.674Z,15.20
2018-12-17T08:58:32.301Z,14.60
2018-12-17T09:01:00.831Z,17.02
2018-12-17T09:03:29.271Z,14.65
2018-12-17T09:05:57.917Z,17.50
2018-12-17T09:08:26.545Z,15.50
2018-12-17T09:10:55.299Z,12.55
2018-12-17T09:13:23.798Z,9.33
2018-12-17T09:15:53.528Z,14.65
2018-12-17T09:18:22.737Z,13.55
2018-12-17T09:20:51.992Z,10.20
2018-12-17T09:23:20.408Z,12.33
2018-12-17T09:25:49.529Z,11.03
2018-12-17T09:28:17.960Z,6.47
2018-12-17T09:30:47.029Z,8.48
2018-12-17T09:33:15.762Z,9.50
2018-12-17T09:35:44.616Z,7.12
2018-12-17T09:38:13.454Z,6.50
2018-12-17T09:40:41.912Z,6.60
2018-12-17T09:43:11.338Z,6.35
2018-12-17T09:45:39.947Z,8.98
2018-12-17T09:48:08.458Z,8.30
2018-12-17T09:50:37.951Z,7.08
2018-12-17T09:53:06.602Z,6.65
2018-12-17T09:55:36.366Z,8.05
2018-12-17T09:58:05.275Z,7.80
2018-12-17T10:00:34.083Z,11.10
2018-12-17T10:03:02.808Z,10.35
2018-12-17T10:05:31.899Z,7.45
2018-12-17T10:08:00.357Z,10.32
2018-12-17T10:10:28.944Z,14.58
2018-12-17T10:12:57.820Z,7.42
2018-12-17T10:15:26.284Z,10.82
2018-12-17T10:17:54.819Z,8.60
2018-12-17T10:20:24.079Z,8.78
2018-12-17T10:22:52.525Z,11.15
2018-12-17T10:25:21.091Z,9.83
2018-12-17T10:27:49.460Z,14.55
2018-12-17T10:30:18.301Z,7.17
2018-12-17T10:32:47.513Z,14.25
2018-12-17T10:35:16.672Z,11.97
2018-12-17T10:37:45.186Z,8.45
2018-12-17T10:40:13.856Z,10.05
2018-12-17T10:42:42.357Z,7.33
2018-12-17T10:45:12.523Z,9.15
2018-12-17T10:47:41.125Z,9.80
2018-12-17T10:50:10.131Z,6.72
2018-12-17T10:52:39.864Z,9.98
2018-12-17T10:55:09.518Z,9.20
2018-12-17T10:57:38.170Z,10.20
2018-12-17T11:00:12.888Z,12.70
2018-12-17T11:02:41.352Z,10.35
2018-12-17T11:05:15.933Z,7.35
2018-12-17T11:07:44.461Z,12.73
2018-12-17T11:10:12.890Z,9.03
2018-12-17T11:12:41.896Z,9.08
2018-12-17T11:15:11.529Z,9.75
2018-12-17T11:17:40.303Z,11.73
2018-12-17T11:20:10.756Z,10.30
2018-12-17T11:22:39.620Z,9.33
2018-12-17T11:25:08.735Z,9.98
2018-12-17T11:27:37.759Z,8.93
2018-12-17T11:30:09.331Z,12.10
2018-12-17T11:32:41.284Z,7.55
2018-12-17T11:35:10.048Z,7.15
2018-12-17T11:37:39.135Z,8.68
2018-12-17T11:40:08.139Z,6.35
2018-12-17T11:42:37.157Z,6.25
2018-12-17T11:45:05.873Z,8.45
2018-12-17T11:47:34.417Z,8.15
2018-12-17T11:50:03.175Z,6.95
2018-12-17T11:52:32.056Z,7.50
2018-12-17T11:55:00.700Z,5.30
2018-12-17T11:57:43.684Z,11.25
2018-12-17T12:00:13.231Z,7.65
2018-12-17T12:02:42.112Z,6.87
2018-12-17T12:05:10.538Z,10.85
2018-12-17T12:07:39.532Z,7.92
2018-12-17T12:10:09.083Z,8.38
2018-12-17T12:12:38.677Z,8.50
2018-12-17T12:15:07.267Z,9.75
2018-12-17T12:17:35.885Z,7.80
2018-12-17T12:20:04.848Z,10.95
2018-12-17T12:22:33.609Z,8.18
2018-12-17T12:25:02.046Z,7.03
2018-12-17T12:27:30.707Z,5.42
2018-12-17T12:29:59.751Z,8.30
2018-12-17T12:32:28.200Z,7.35
2018-12-17T12:34:56.781Z,9.23
2018-12-17T12:37:25.572Z,11.15
2018-12-17T12:39:54.185Z,10.50
2018-12-17T12:42:22.654Z,12.03
2018-12-17T12:44:51.474Z,5.70
2018-12-17T12:47:19.974Z,6.37
2018-12-17T12:49:48.450Z,13.32
2018-12-17T12:52:17.465Z,8.50
2018-12-17T12:54:45.845Z,8.28
2018-12-17T12:57:14.739Z,8.15
2018-12-17T12:59:43.165Z,11.00
2018-12-17T13:02:11.712Z,5.53
2018-12-17T13:04:40.258Z,5.50
2018-12-17T13:07:09.101Z,10.18
2018-12-17T13:09:38.435Z,14.25
2018-12-17T13:12:06.944Z,6.33
2018-12-17T13:14:35.406Z,10.90
2018-12-17T13:17:09.300Z,9.05
2018-12-17T13:19:52.161Z,8.40
2018-12-17T13:22:20.962Z,6.12
2018-12-17T13:24:49.577Z,8.85
2018-12-17T13:27:18.637Z,6.60
2018-12-17T13:29:47.093Z,6.97
2018-12-17T13:32:15.557Z,5.30
2018-12-17T13:34:44.125Z,9.35
2018-12-17T13:37:12.576Z,8.25
2018-12-17T13:39:41.127Z,8.10
2018-12-17T13:42:09.584Z,14.60
2018-12-17T13:44:38.098Z,11.78
2018-12-17T13:47:06.526Z,9.85
2018-12-17T13:49:34.911Z,5.12
2018-12-17T13:52:08.753Z,9.40
2018-12-17T13:54:37.518Z,7.70
2018-12-17T13:57:06.134Z,7.12
2018-12-17T13:59:34.660Z,10.30
2018-12-17T14:02:03.591Z,6.78
2018-12-17T14:04:32.399Z,6.58
2018-12-17T14:07:00.882Z,7.92
2018-12-17T14:09:29.299Z,9.35
2018-12-17T14:11:57.806Z,8.85
2018-12-17T14:14:26.448Z,5.30
2018-12-17T14:17:00.323Z,8.10
2018-12-17T14:19:28.799Z,7.25
2018-12-17T14:22:00.092Z,7.47
2018-12-17T14:24:28.532Z,9.23
2018-12-17T14:26:57.189Z,11.63
2018-12-17T14:29:26.218Z,7.58
2018-12-17T14:31:54.759Z,10.18
2018-12-17T14:34:23.658Z,7.00
2018-12-17T14:36:52.418Z,11.40
2018-12-17T14:39:21.043Z,7.85
2018-12-17T14:41:50.347Z,8.68
2018-12-17T14:44:24.134Z,6.28
2018-12-17T14:46:58.992Z,11.28
2018-12-17T14:49:27.922Z,12.65
2018-12-17T14:51:56.397Z,10.68
2018-12-17T14:54:25.087Z,10.20
2018-12-17T14:56:53.636Z,10.20
2018-12-17T14:59:22.488Z,10.30
2018-12-17T15:01:51.053Z,6.40
2018-12-17T15:04:19.553Z,7.60
2018-12-17T15:06:48.261Z,8.65
2018-12-17T15:09:18.283Z,8.58
2018-12-17T15:11:47.345Z,10.30
2018-12-17T15:14:16.096Z,8.00
2018-12-17T15:16:44.663Z,10.82
2018-12-17T15:19:13.887Z,6.67
2018-12-17T15:21:42.927Z,6.62
2018-12-17T15:24:11.417Z,5.58
2018-12-17T15:26:39.882Z,9.68
2018-12-17T15:29:09.528Z,7.72
2018-12-17T15:31:43.106Z,9.45
2018-12-17T15:34:08.521Z,9.58
2018-12-17T15:36:38.323Z,5.65
2018-12-17T15:39:07.117Z,7.87
2018-12-17T15:41:36.471Z,7.60
2018-12-17T15:44:05.112Z,5.08
2018-12-17T15:46:34.754Z,9.35
2018-12-17T15:49:04.024Z,8.95
2018-12-17T15:51:32.980Z,10.95
2018-12-17T15:54:02.704Z,11.18
2018-12-17T15:56:31.866Z,7.28
2018-12-17T15:59:02.009Z,5.30
2018-12-17T16:01:31.284Z,7.97
2018-12-17T16:03:59.989Z,6.42
2018-12-17T16:06:28.619Z,10.95
2018-12-17T16:08:57.591Z,3.92
2018-12-17T16:11:26.073Z,8.85
2018-12-17T16:13:54.582Z,6.87
2018-12-17T16:16:23.546Z,9.08
2018-12-17T16:18:57.444Z,6.62
2018-12-17T16:21:26.922Z,7.65
2018-12-17T16:23:55.450Z,6.20
2018-12-17T16:26:24.616Z,8.10
2018-12-17T16:28:53.546Z,11.03
2018-12-17T16:31:22.584Z,7.03
2018-12-17T16:33:51.275Z,8.20
2018-12-17T16:36:19.767Z,10.30
2018-12-17T16:38:48.421Z,5.78
2018-12-17T16:41:17.018Z,9.98
2018-12-17T16:43:45.758Z,11.78
2018-12-17T16:46:14.992Z,12.23
2018-12-17T16:48:43.926Z,12.60
2018-12-17T16:51:12.752Z,9.68
2018-12-17T16:53:41.518Z,7.03
2018-12-17T16:56:11.258Z,9.58
2018-12-17T16:58:39.924Z,7.97
2018-12-17T17:01:09.560Z,6.85
2018-12-17T17:03:38.697Z,11.05
2018-12-17T17:06:07.405Z,6.28
2018-12-17T17:08:36.303Z,9.85
2018-12-17T17:11:04.917Z,7.50
2018-12-17T17:13:33.479Z,11.45
2018-12-17T17:16:02.108Z,6.60
2018-12-17T17:18:30.858Z,12.93
2018-12-17T17:20:59.762Z,11.08
2018-12-17T17:23:28.613Z,8.50
2018-12-17T17:25:57.531Z,6.40
2018-12-17T17:28:26.539Z,8.63
2018-12-17T17:30:55.189Z,9.68
2018-12-17T17:33:23.897Z,8.30
2018-12-17T17:35:52.425Z,11.68
2018-12-17T17:38:20.914Z,9.83
2018-12-17T17:40:49.539Z,12.35
2018-12-17T17:43:17.995Z,5.45
2018-12-17T17:45:50.198Z,6.85
2018-12-17T17:48:19.832Z,9.63
2018-12-17T17:50:48.749Z,9.53
2018-12-17T17:53:17.494Z,7.47
2018-12-17T17:55:46.433Z,8.63
2018-12-17T17:58:14.977Z,8.45
2018-12-17T18:00:43.895Z,9.08
2018-12-17T18:03:12.372Z,6.37
2018-12-17T18:05:41.024Z,11.57
2018-12-17T18:08:10.137Z,12.88
2018-12-17T18:10:38.722Z,5.87
2018-12-17T18:13:07.619Z,6.03
2018-12-17T18:15:36.171Z,6.80
2018-12-17T18:18:05.246Z,13.10
2018-12-17T18:20:33.795Z,12.88
2018-12-17T18:23:02.314Z,6.80
2018-12-17T18:25:30.811Z,7.03
2018-12-17T18:27:59.486Z,9.55
2018-12-17T18:30:28.339Z,5.78
2018-12-17T18:32:57.190Z,11.00
2018-12-17T18:35:25.575Z,12.70
2018-12-17T18:37:54.437Z,7.15
2018-12-17T18:40:23.760Z,6.12
2018-12-17T18:42:52.711Z,7.65
2018-12-17T18:45:22.225Z,9.55
2018-12-17T18:47:51.093Z,11.28
2018-12-17T18:50:20.141Z,8.88
2018-12-17T18:52:48.640Z,7.65
2018-12-17T18:55:18.772Z,9.08
2018-12-17T18:57:47.362Z,11.00
2018-12-17T19:00:17.442Z,7.12
2018-12-17T19:02:47.162Z,10.23
2018-12-17T19:05:15.976Z,8.35
2018-12-17T19:07:44.696Z,8.05
2018-12-17T19:10:13.226Z,14.33
2018-12-17T19:12:42.361Z,5.00
2018-12-17T19:15:11.559Z,8.75
2018-12-17T19:17:46.770Z,8.08
2018-12-17T19:20:15.256Z,8.58
2018-12-17T19:22:44.675Z,9.03
2018-12-17T19:25:13.367Z,13.80
2018-12-17T19:27:42.607Z,7.75
2018-12-17T19:30:11.265Z,11.38
2018-12-17T19:32:40.356Z,6.72
2018-12-17T19:35:09.654Z,10.58
2018-12-17T19:37:38.478Z,10.28
2018-12-17T19:40:08.087Z,12.03
2018-12-17T19:42:36.681Z,7.70
2018-12-17T19:45:05.827Z,10.35
2018-12-17T19:47:34.546Z,6.75
2018-12-17T19:50:03.082Z,12.28
2018-12-17T19:52:31.740Z,9.43
2018-12-17T19:55:00.956Z,9.68
2018-12-17T19:57:29.488Z,6.90
2018-12-17T19:59:57.963Z,10.80
2018-12-17T20:02:26.584Z,11.30
2018-12-17T20:04:55.049Z,7.60
2018-12-17T20:07:23.570Z,8.13
2018-12-17T20:09:53.280Z,10.13
2018-12-17T20:12:21.779Z,7.45
2018-12-17T20:14:50.222Z,12.93
2018-12-17T20:17:18.898Z,8.65
2018-12-17T20:19:47.784Z,11.03
2018-12-17T20:22:16.527Z,9.40
2018-12-17T20:24:44.978Z,10.75
2018-12-17T20:27:14.068Z,9.88
2018-12-17T20:29:42.644Z,8.15
2018-12-17T20:32:11.289Z,9.33
2018-12-17T20:34:40.869Z,11.73
2018-12-17T20:37:10.188Z,9.45
2018-12-17T20:39:38.916Z,10.13
2018-12-17T20:42:07.921Z,14.65
2018-12-17T20:44:36.414Z,8.70
2018-12-17T20:47:04.951Z,12.18
2018-12-17T20:49:33.622Z,13.40
2018-12-17T20:52:02.882Z,10.28
2018-12-17T20:54:32.699Z,16.77
2018-12-17T20:57:01.168Z,12.37
2018-12-17T20:59:30.244Z,11.38
2018-12-17T21:01:59.134Z,13.85
2018-12-17T21:04:27.602Z,12.88
2018-12-17T21:06:56.247Z,12.73
2018-12-17T21:09:25.388Z,12.28
2018-12-17T21:11:53.813Z,20.90
2018-12-17T21:14:23.894Z,17.17
2018-12-17T21:16:52.957Z,14.73
2018-12-17T21:19:21.914Z,17.05
2018-12-17T21:21:50.985Z,13.38
2018-12-17T21:24:19.510Z,12.78
2018-12-17T21:26:47.960Z,18.35
2018-12-17T21:29:16.694Z,17.77
2018-12-17T21:31:45.408Z,15.95
2018-12-17T21:34:13.919Z,13.08
2018-12-17T21:36:43.673Z,13.08
2018-12-17T21:39:13.707Z,14.73
2018-12-17T21:41:42.701Z,13.90
2018-12-17T21:44:11.904Z,13.90
2018-12-17T21:46:40.371Z,18.70
2018-12-17T21:49:08.872Z,16.12
2018-12-17T21:51:37.540Z,13.15
2018-12-17T21:54:06.888Z,18.52
2018-12-17T21:56:36.005Z,13.40
2018-12-17T21:59:04.868Z,20.12
2018-12-17T22:01:33.825Z,15.88
2018-12-17T22:04:02.647Z,16.77
2018-12-17T22:06:31.524Z,13.98
2018-12-17T22:09:00.200Z,18.40
2018-12-17T22:11:29.006Z,16.73
2018-12-17T22:13:57.680Z,17.00
2018-12-17T22:16:26.909Z,13.58
2018-12-17T22:18:56.711Z,22.42
2018-12-17T22:21:25.706Z,16.67
2018-12-17T22:23:54.599Z,16.75
2018-12-17T22:26:29.061Z,19.10
2018-12-17T22:28:53.796Z,16.25
2018-12-17T22:31:22.688Z,20.25
2018-12-17T22:33:51.337Z,14.55
2018-12-17T22:36:19.920Z,16.35
2018-12-17T22:38:48.404Z,17.62
2018-12-17T22:41:17.557Z,20.02
2018-12-17T22:43:46.431Z,15.28
2018-12-17T22:46:14.940Z,16.67
2018-12-17T22:48:43.733Z,14.35
2018-12-17T22:51:12.471Z,22.27
2018-12-17T22:53:40.992Z,20.70
2018-12-17T22:56:09.411Z,17.15
2018-12-17T22:58:42.351Z,22.80
2018-12-17T23:01:09.967Z,19.85
2018-12-17T23:03:38.788Z,20.08
2018-12-17T23:06:08.129Z,21.15
2018-12-17T23:08:41.085Z,17.42
2018-12-17T23:11:20.734Z,20.52
2018-12-17T23:14:00.458Z,20.40
2018-12-17T23:16:40.096Z,19.12
2018-12-17T23:19:20.097Z,26.57
2018-12-17T23:21:48.646Z,24.75
2018-12-17T23:24:17.131Z,22.05
2018-12-17T23:26:45.627Z,20.32
2018-12-17T23:29:14.098Z,27.75
2018-12-17T23:31:49.156Z,23.00
2018-12-17T23:34:18.136Z,20.20
2018-12-17T23:36:47.671Z,20.75
2018-12-17T23:39:18.718Z,27.67
2018-12-17T23:41:47.382Z,26.25
2018-12-17T23:44:16.016Z,29.82
2018-12-17T23:46:44.429Z,26.62
2018-12-17T23:49:12.831Z,41.13
2018-12-17T23:51:41.506Z,29.85
2018-12-17T23:54:10.093Z,25.10
2018-12-17T23:56:39.004Z,26.52
2018-12-17T23:59:09.017Z,27.98
